Aviation Digital Data Service (ADDS)

Output produced by METARs form (0904 UTC 18 February 2019)
found at http://www.aviationweather.gov/metar/data/
 
METAR text: YPDN 180830Z 29013KT 9999 FEW030CB BKN350 32/24 Q1009 NOSIG
Conditions at: YPDN (DARWIN (CIV/MIL), AU) observed 0830 UTC 18 February 2019
Temperature: 32.0°C (90°F)
Dewpoint: 24.0°C (75°F) [RH = 63%]
Pressure (altimeter): 29.79 inches Hg (1009.0 mb)
Winds: from the WNW (290 degrees) at 15 MPH (13 knots; 6.7 m/s)
Visibility: 6 or more miles (10+ km)
Ceiling: 35000 feet AGL
Clouds: few clouds at 3000 feet AGL
broken clouds at 35000 feet AGL
Weather: no significant weather observed at this time

METAR text: YPDN 180800Z 29014KT 9999 FEW030CB SCT350 32/24 Q1008 NOSIG
Conditions at: YPDN (DARWIN (CIV/MIL), AU) observed 0800 UTC 18 February 2019
Temperature: 32.0°C (90°F)
Dewpoint: 24.0°C (75°F) [RH = 63%]
Pressure (altimeter): 29.76 inches Hg (1008.0 mb)
Winds: from the WNW (290 degrees) at 16 MPH (14 knots; 7.2 m/s)
Visibility: 6 or more miles (10+ km)
Ceiling: at least 12,000 feet AGL
Clouds: few clouds at 3000 feet AGL
scattered clouds at 35000 feet AGL
Weather: no significant weather observed at this time

METAR text: YPDN 180730Z AUTO 29013KT 9999 // NCD 32/24 Q1008
Conditions at: YPDN (DARWIN (CIV/MIL), AU) observed 0730 UTC 18 February 2019
Temperature: 32.0°C (90°F)
Dewpoint: 24.0°C (75°F) [RH = 63%]
Pressure (altimeter): 29.76 inches Hg (1008.0 mb)
Winds: from the WNW (290 degrees) at 15 MPH (13 knots; 6.7 m/s)
Visibility: 6 or more miles (10+ km)
Ceiling: at least 12,000 feet AGL
Clouds: sky clear below 12,000 feet AGL
Weather: no significant weather observed at this time

METAR text: YPDN 180700Z 29014KT 9999 FEW032CB 33/23 Q1008 NOSIG
Conditions at: YPDN (DARWIN (CIV/MIL), AU) observed 0700 UTC 18 February 2019
Temperature: 33.0°C (91°F)
Dewpoint: 23.0°C (73°F) [RH = 56%]
Pressure (altimeter): 29.76 inches Hg (1008.0 mb)
Winds: from the WNW (290 degrees) at 16 MPH (14 knots; 7.2 m/s)
Visibility: 6 or more miles (10+ km)
Ceiling: at least 12,000 feet AGL
Clouds: few clouds at 3200 feet AGL
Weather: no significant weather observed at this time

METAR text: YPDN 180630Z 29015KT 9999 FEW032CB 33/24 Q1008
Conditions at: YPDN (DARWIN (CIV/MIL), AU) observed 0630 UTC 18 February 2019
Temperature: 33.0°C (91°F)
Dewpoint: 24.0°C (75°F) [RH = 59%]
Pressure (altimeter): 29.76 inches Hg (1008.0 mb)
Winds: from the WNW (290 degrees) at 17 MPH (15 knots; 7.7 m/s)
Visibility: 6 or more miles (10+ km)
Ceiling: at least 12,000 feet AGL
Clouds: few clouds at 3200 feet AGL
Weather: no significant weather observed at this time

METAR text: YPDN 180600Z 29015KT 9999 FEW036TCU 33/24 Q1008 NOSIG
Conditions at: YPDN (DARWIN (CIV/MIL), AU) observed 0600 UTC 18 February 2019
Temperature: 33.0°C (91°F)
Dewpoint: 24.0°C (75°F) [RH = 59%]
Pressure (altimeter): 29.76 inches Hg (1008.0 mb)
Winds: from the WNW (290 degrees) at 17 MPH (15 knots; 7.7 m/s)
Visibility: 6 or more miles (10+ km)
Ceiling: at least 12,000 feet AGL
Clouds: few clouds at 3600 feet AGL
Weather: no significant weather observed at this time

METAR text: YPDN 180530Z 29014KT 9999 FEW036 33/24 Q1008 NOSIG
Conditions at: YPDN (DARWIN (CIV/MIL), AU) observed 0530 UTC 18 February 2019
Temperature: 33.0°C (91°F)
Dewpoint: 24.0°C (75°F) [RH = 59%]
Pressure (altimeter): 29.76 inches Hg (1008.0 mb)
Winds: from the WNW (290 degrees) at 16 MPH (14 knots; 7.2 m/s)
Visibility: 6 or more miles (10+ km)
Ceiling: at least 12,000 feet AGL
Clouds: few clouds at 3600 feet AGL
Weather: no significant weather observed at this time

METAR text: YPDN 180500Z 30014KT 9999 FEW034 33/24 Q1009 NOSIG
Conditions at: YPDN (DARWIN (CIV/MIL), AU) observed 0500 UTC 18 February 2019
Temperature: 33.0°C (91°F)
Dewpoint: 24.0°C (75°F) [RH = 59%]
Pressure (altimeter): 29.79 inches Hg (1009.0 mb)
Winds: from the WNW (300 degrees) at 16 MPH (14 knots; 7.2 m/s)
Visibility: 6 or more miles (10+ km)
Ceiling: at least 12,000 feet AGL
Clouds: few clouds at 3400 feet AGL
Weather: no significant weather observed at this time

METAR text: YPDN 180430Z 30014KT 9999 FEW034 33/24 Q1009 NOSIG
Conditions at: YPDN (DARWIN (CIV/MIL), AU) observed 0430 UTC 18 February 2019
Temperature: 33.0°C (91°F)
Dewpoint: 24.0°C (75°F) [RH = 59%]
Pressure (altimeter): 29.79 inches Hg (1009.0 mb)
Winds: from the WNW (300 degrees) at 16 MPH (14 knots; 7.2 m/s)
Visibility: 6 or more miles (10+ km)
Ceiling: at least 12,000 feet AGL
Clouds: few clouds at 3400 feet AGL
Weather: no significant weather observed at this time

METAR text: YPDN 180400Z 30013KT 9999 FEW034 33/24 Q1009 NOSIG
Conditions at: YPDN (DARWIN (CIV/MIL), AU) observed 0400 UTC 18 February 2019
Temperature: 33.0°C (91°F)
Dewpoint: 24.0°C (75°F) [RH = 59%]
Pressure (altimeter): 29.79 inches Hg (1009.0 mb)
Winds: from the WNW (300 degrees) at 15 MPH (13 knots; 6.7 m/s)
Visibility: 6 or more miles (10+ km)
Ceiling: at least 12,000 feet AGL
Clouds: few clouds at 3400 feet AGL
Weather: no significant weather observed at this time

METAR text: YPDN 180330Z 30014KT 9999 FEW030 32/24 Q1010 NOSIG
Conditions at: YPDN (DARWIN (CIV/MIL), AU) observed 0330 UTC 18 February 2019
Temperature: 32.0°C (90°F)
Dewpoint: 24.0°C (75°F) [RH = 63%]
Pressure (altimeter): 29.82 inches Hg (1010.0 mb)
Winds: from the WNW (300 degrees) at 16 MPH (14 knots; 7.2 m/s)
Visibility: 6 or more miles (10+ km)
Ceiling: at least 12,000 feet AGL
Clouds: few clouds at 3000 feet AGL
Weather: no significant weather observed at this time

METAR text: YPDN 180300Z 30011KT 9999 FEW027 32/24 Q1010 NOSIG
Conditions at: YPDN (DARWIN (CIV/MIL), AU) observed 0300 UTC 18 February 2019
Temperature: 32.0°C (90°F)
Dewpoint: 24.0°C (75°F) [RH = 63%]
Pressure (altimeter): 29.82 inches Hg (1010.0 mb)
Winds: from the WNW (300 degrees) at 13 MPH (11 knots; 5.7 m/s)
Visibility: 6 or more miles (10+ km)
Ceiling: at least 12,000 feet AGL
Clouds: few clouds at 2700 feet AGL
Weather: no significant weather observed at this time

METAR text: YPDN 180230Z 30010KT 9999 FEW025 SCT150 33/24 Q1010 NOSIG
Conditions at: YPDN (DARWIN (CIV/MIL), AU) observed 0230 UTC 18 February 2019
Temperature: 33.0°C (91°F)
Dewpoint: 24.0°C (75°F) [RH = 59%]
Pressure (altimeter): 29.82 inches Hg (1010.0 mb)
Winds: from the WNW (300 degrees) at 12 MPH (10 knots; 5.1 m/s)
Visibility: 6 or more miles (10+ km)
Ceiling: at least 12,000 feet AGL
Clouds: few clouds at 2500 feet AGL
scattered clouds at 15000 feet AGL
Weather: no significant weather observed at this time

METAR text: YPDN 180200Z 30010KT 9999 FEW027 BKN150 32/24 Q1011 NOSIG
Conditions at: YPDN (DARWIN (CIV/MIL), AU) observed 0200 UTC 18 February 2019
Temperature: 32.0°C (90°F)
Dewpoint: 24.0°C (75°F) [RH = 63%]
Pressure (altimeter): 29.85 inches Hg (1011.0 mb)
Winds: from the WNW (300 degrees) at 12 MPH (10 knots; 5.1 m/s)
Visibility: 6 or more miles (10+ km)
Ceiling: 15000 feet AGL
Clouds: few clouds at 2700 feet AGL
broken clouds at 15000 feet AGL
Weather: no significant weather observed at this time

METAR text: YPDN 180130Z 29009KT 9999 FEW027 SCT145 31/23 Q1011 NOSIG
Conditions at: YPDN (DARWIN (CIV/MIL), AU) observed 0130 UTC 18 February 2019
Temperature: 31.0°C (88°F)
Dewpoint: 23.0°C (73°F) [RH = 63%]
Pressure (altimeter): 29.85 inches Hg (1011.0 mb)
Winds: from the WNW (290 degrees) at 10 MPH (9 knots; 4.6 m/s)
Visibility: 6 or more miles (10+ km)
Ceiling: at least 12,000 feet AGL
Clouds: few clouds at 2700 feet AGL
scattered clouds at 14500 feet AGL
Weather: no significant weather observed at this time

METAR text: YPDN 180100Z 29008KT 9999 SCT027 SCT145 32/23 Q1011 NOSIG
Conditions at: YPDN (DARWIN (CIV/MIL), AU) observed 0100 UTC 18 February 2019
Temperature: 32.0°C (90°F)
Dewpoint: 23.0°C (73°F) [RH = 59%]
Pressure (altimeter): 29.85 inches Hg (1011.0 mb)
Winds: from the WNW (290 degrees) at 9 MPH (8 knots; 4.1 m/s)
Visibility: 6 or more miles (10+ km)
Ceiling: at least 12,000 feet AGL
Clouds: scattered clouds at 2700 feet AGL
scattered clouds at 14500 feet AGL
Weather: no significant weather observed at this time

METAR text: YPDN 180030Z 28009KT 9999 FEW023 SCT145 31/24 Q1011 NOSIG
Conditions at: YPDN (DARWIN (CIV/MIL), AU) observed 0030 UTC 18 February 2019
Temperature: 31.0°C (88°F)
Dewpoint: 24.0°C (75°F) [RH = 66%]
Pressure (altimeter): 29.85 inches Hg (1011.0 mb)
Winds: from the W (280 degrees) at 10 MPH (9 knots; 4.6 m/s)
Visibility: 6 or more miles (10+ km)
Ceiling: at least 12,000 feet AGL
Clouds: few clouds at 2300 feet AGL
scattered clouds at 14500 feet AGL
Weather: no significant weather observed at this time

METAR text: YPDN 180000Z 27007KT 250V310 9999 FEW021 SCT145 30/25 Q1011 NOSIG
Conditions at: YPDN (DARWIN (CIV/MIL), AU) observed 0000 UTC 18 February 2019
Temperature: 30.0°C (86°F)
Dewpoint: 25.0°C (77°F) [RH = 75%]
Pressure (altimeter): 29.85 inches Hg (1011.0 mb)
Winds: from the W (270 degrees) at 8 MPH (7 knots; 3.6 m/s)
Visibility: 6 or more miles (10+ km)
Ceiling: at least 12,000 feet AGL
Clouds: few clouds at 2100 feet AGL
scattered clouds at 14500 feet AGL
Weather: no significant weather observed at this time

METAR text: YPDN 172330Z 26005KT 9999 FEW021 BKN145 30/25 Q1011 NOSIG
Conditions at: YPDN (DARWIN (CIV/MIL), AU) observed 2330 UTC 17 February 2019
Temperature: 30.0°C (86°F)
Dewpoint: 25.0°C (77°F) [RH = 75%]
Pressure (altimeter): 29.85 inches Hg (1011.0 mb)
Winds: from the W (260 degrees) at 6 MPH (5 knots; 2.6 m/s)
Visibility: 6 or more miles (10+ km)
Ceiling: 14500 feet AGL
Clouds: few clouds at 2100 feet AGL
broken clouds at 14500 feet AGL
Weather: no significant weather observed at this time

METAR text: YPDN 172300Z 26006KT 9999 FEW021 BKN145 29/25 Q1011 NOSIG
Conditions at: YPDN (DARWIN (CIV/MIL), AU) observed 2300 UTC 17 February 2019
Temperature: 29.0°C (84°F)
Dewpoint: 25.0°C (77°F) [RH = 79%]
Pressure (altimeter): 29.85 inches Hg (1011.0 mb)
Winds: from the W (260 degrees) at 7 MPH (6 knots; 3.1 m/s)
Visibility: 6 or more miles (10+ km)
Ceiling: 14500 feet AGL
Clouds: few clouds at 2100 feet AGL
broken clouds at 14500 feet AGL
Weather: no significant weather observed at this time

METAR text: YPDN 172230Z 27004KT 9999 FEW017 SCT150 29/25 Q1010 NOSIG
Conditions at: YPDN (DARWIN (CIV/MIL), AU) observed 2230 UTC 17 February 2019
Temperature: 29.0°C (84°F)
Dewpoint: 25.0°C (77°F) [RH = 79%]
Pressure (altimeter): 29.82 inches Hg (1010.0 mb)
Winds: from the W (270 degrees) at 5 MPH (4 knots; 2.1 m/s)
Visibility: 6 or more miles (10+ km)
Ceiling: at least 12,000 feet AGL
Clouds: few clouds at 1700 feet AGL
scattered clouds at 15000 feet AGL
Weather: no significant weather observed at this time

METAR text: YPDN 172200Z 27005KT 9999 FEW017 SCT150 29/25 Q1010 NOSIG
Conditions at: YPDN (DARWIN (CIV/MIL), AU) observed 2200 UTC 17 February 2019
Temperature: 29.0°C (84°F)
Dewpoint: 25.0°C (77°F) [RH = 79%]
Pressure (altimeter): 29.82 inches Hg (1010.0 mb)
Winds: from the W (270 degrees) at 6 MPH (5 knots; 2.6 m/s)
Visibility: 6 or more miles (10+ km)
Ceiling: at least 12,000 feet AGL
Clouds: few clouds at 1700 feet AGL
scattered clouds at 15000 feet AGL
Weather: no significant weather observed at this time

METAR text: YPDN 172130Z 28003KT 9999 FEW016 BKN140 28/25 Q1009 NOSIG
Conditions at: YPDN (DARWIN (CIV/MIL), AU) observed 2130 UTC 17 February 2019
Temperature: 28.0°C (82°F)
Dewpoint: 25.0°C (77°F) [RH = 84%]
Pressure (altimeter): 29.79 inches Hg (1009.0 mb)
Winds: from the W (280 degrees) at 3 MPH (3 knots; 1.5 m/s)
Visibility: 6 or more miles (10+ km)
Ceiling: 14000 feet AGL
Clouds: few clouds at 1600 feet AGL
broken clouds at 14000 feet AGL
Weather: no significant weather observed at this time

METAR text: YPDN 172100Z 27003KT 9999 FEW016 BKN140 BKN150 28/25 Q1009 NOSIG
Conditions at: YPDN (DARWIN (CIV/MIL), AU) observed 2100 UTC 17 February 2019
Temperature: 28.0°C (82°F)
Dewpoint: 25.0°C (77°F) [RH = 84%]
Pressure (altimeter): 29.79 inches Hg (1009.0 mb)
Winds: from the W (270 degrees) at 3 MPH (3 knots; 1.5 m/s)
Visibility: 6 or more miles (10+ km)
Ceiling: 14000 feet AGL
Clouds: few clouds at 1600 feet AGL
broken clouds at 14000 feet AGL
broken clouds at 15000 feet AGL
Weather: no significant weather observed at this time

METAR text: YPDN 172030Z 26004KT 9999 FEW016 BKN130 28/25 Q1009 NOSIG
Conditions at: YPDN (DARWIN (CIV/MIL), AU) observed 2030 UTC 17 February 2019
Temperature: 28.0°C (82°F)
Dewpoint: 25.0°C (77°F) [RH = 84%]
Pressure (altimeter): 29.79 inches Hg (1009.0 mb)
Winds: from the W (260 degrees) at 5 MPH (4 knots; 2.1 m/s)
Visibility: 6 or more miles (10+ km)
Ceiling: 13000 feet AGL
Clouds: few clouds at 1600 feet AGL
broken clouds at 13000 feet AGL
Weather: no significant weather observed at this time

METAR text: YPDN 172000Z 27004KT 9999 FEW015 BKN130 28/25 Q1009 NOSIG
Conditions at: YPDN (DARWIN (CIV/MIL), AU) observed 2000 UTC 17 February 2019
Temperature: 28.0°C (82°F)
Dewpoint: 25.0°C (77°F) [RH = 84%]
Pressure (altimeter): 29.79 inches Hg (1009.0 mb)
Winds: from the W (270 degrees) at 5 MPH (4 knots; 2.1 m/s)
Visibility: 6 or more miles (10+ km)
Ceiling: 13000 feet AGL
Clouds: few clouds at 1500 feet AGL
broken clouds at 13000 feet AGL
Weather: no significant weather observed at this time

METAR text: YPDN 171930Z 26003KT 9999 FEW015 BKN180 28/25 Q1009
Conditions at: YPDN (DARWIN (CIV/MIL), AU) observed 1930 UTC 17 February 2019
Temperature: 28.0°C (82°F)
Dewpoint: 25.0°C (77°F) [RH = 84%]
Pressure (altimeter): 29.79 inches Hg (1009.0 mb)
Winds: from the W (260 degrees) at 3 MPH (3 knots; 1.5 m/s)
Visibility: 6 or more miles (10+ km)
Ceiling: 18000 feet AGL
Clouds: few clouds at 1500 feet AGL
broken clouds at 18000 feet AGL
Weather: no significant weather observed at this time

METAR text: YPDN 171900Z 23003KT 9999 FEW015 BKN140 28/25 Q1009
Conditions at: YPDN (DARWIN (CIV/MIL), AU) observed 1900 UTC 17 February 2019
Temperature: 28.0°C (82°F)
Dewpoint: 25.0°C (77°F) [RH = 84%]
Pressure (altimeter): 29.79 inches Hg (1009.0 mb)
Winds: from the SW (230 degrees) at 3 MPH (3 knots; 1.5 m/s)
Visibility: 6 or more miles (10+ km)
Ceiling: 14000 feet AGL
Clouds: few clouds at 1500 feet AGL
broken clouds at 14000 feet AGL
Weather: no significant weather observed at this time

METAR text: YPDN 171830Z 26005KT CAVOK 28/25 Q1008
Conditions at: YPDN (DARWIN (CIV/MIL), AU) observed 1830 UTC 17 February 2019
Temperature: 28.0°C (82°F)
Dewpoint: 25.0°C (77°F) [RH = 84%]
Pressure (altimeter): 29.76 inches Hg (1008.0 mb)
Winds: from the W (260 degrees) at 6 MPH (5 knots; 2.6 m/s)
Visibility: 6 or more miles (10+ km)
Ceiling: ceiling and visibility are OK
Clouds: unknown
Weather: no significant weather observed at this time

METAR text: YPDN 171800Z 27004KT CAVOK 28/25 Q1009
Conditions at: YPDN (DARWIN (CIV/MIL), AU) observed 1800 UTC 17 February 2019
Temperature: 28.0°C (82°F)
Dewpoint: 25.0°C (77°F) [RH = 84%]
Pressure (altimeter): 29.79 inches Hg (1009.0 mb)
Winds: from the W (270 degrees) at 5 MPH (4 knots; 2.1 m/s)
Visibility: 6 or more miles (10+ km)
Ceiling: ceiling and visibility are OK
Clouds: unknown
Weather: no significant weather observed at this time

METAR text: YPDN 171730Z 26004KT CAVOK 28/24 Q1009
Conditions at: YPDN (DARWIN (CIV/MIL), AU) observed 1730 UTC 17 February 2019
Temperature: 28.0°C (82°F)
Dewpoint: 24.0°C (75°F) [RH = 79%]
Pressure (altimeter): 29.79 inches Hg (1009.0 mb)
Winds: from the W (260 degrees) at 5 MPH (4 knots; 2.1 m/s)
Visibility: 6 or more miles (10+ km)
Ceiling: ceiling and visibility are OK
Clouds: unknown
Weather: no significant weather observed at this time

METAR text: YPDN 171700Z 23001KT CAVOK 27/24 Q1009
Conditions at: YPDN (DARWIN (CIV/MIL), AU) observed 1700 UTC 17 February 2019
Temperature: 27.0°C (81°F)
Dewpoint: 24.0°C (75°F) [RH = 84%]
Pressure (altimeter): 29.79 inches Hg (1009.0 mb)
Winds: from the SW (230 degrees) at 1 MPH (1 knots; 0.5 m/s)
Visibility: 6 or more miles (10+ km)
Ceiling: ceiling and visibility are OK
Clouds: unknown
Weather: no significant weather observed at this time

METAR text: YPDN 171630Z 00000KT CAVOK 27/24 Q1009
Conditions at: YPDN (DARWIN (CIV/MIL), AU) observed 1630 UTC 17 February 2019
Temperature: 27.0°C (81°F)
Dewpoint: 24.0°C (75°F) [RH = 84%]
Pressure (altimeter): 29.79 inches Hg (1009.0 mb)
Winds: calm
Visibility: 6 or more miles (10+ km)
Ceiling: ceiling and visibility are OK
Clouds: unknown
Weather: no significant weather observed at this time

METAR text: YPDN 171600Z 26001KT CAVOK 27/24 Q1010
Conditions at: YPDN (DARWIN (CIV/MIL), AU) observed 1600 UTC 17 February 2019
Temperature: 27.0°C (81°F)
Dewpoint: 24.0°C (75°F) [RH = 84%]
Pressure (altimeter): 29.82 inches Hg (1010.0 mb)
Winds: from the W (260 degrees) at 1 MPH (1 knots; 0.5 m/s)
Visibility: 6 or more miles (10+ km)
Ceiling: ceiling and visibility are OK
Clouds: unknown
Weather: no significant weather observed at this time

METAR text: YPDN 171530Z 25002KT CAVOK 27/24 Q1010
Conditions at: YPDN (DARWIN (CIV/MIL), AU) observed 1530 UTC 17 February 2019
Temperature: 27.0°C (81°F)
Dewpoint: 24.0°C (75°F) [RH = 84%]
Pressure (altimeter): 29.82 inches Hg (1010.0 mb)
Winds: from the WSW (250 degrees) at 2 MPH (2 knots; 1.0 m/s)
Visibility: 6 or more miles (10+ km)
Ceiling: ceiling and visibility are OK
Clouds: unknown
Weather: no significant weather observed at this time

METAR text: YPDN 171500Z 19002KT CAVOK 27/24 Q1011
Conditions at: YPDN (DARWIN (CIV/MIL), AU) observed 1500 UTC 17 February 2019
Temperature: 27.0°C (81°F)
Dewpoint: 24.0°C (75°F) [RH = 84%]
Pressure (altimeter): 29.85 inches Hg (1011.0 mb)
Winds: from the S (190 degrees) at 2 MPH (2 knots; 1.0 m/s)
Visibility: 6 or more miles (10+ km)
Ceiling: ceiling and visibility are OK
Clouds: unknown
Weather: no significant weather observed at this time

METAR text: YPDN 171430Z 17003KT CAVOK 28/24 Q1011
Conditions at: YPDN (DARWIN (CIV/MIL), AU) observed 1430 UTC 17 February 2019
Temperature: 28.0°C (82°F)
Dewpoint: 24.0°C (75°F) [RH = 79%]
Pressure (altimeter): 29.85 inches Hg (1011.0 mb)
Winds: from the S (170 degrees) at 3 MPH (3 knots; 1.5 m/s)
Visibility: 6 or more miles (10+ km)
Ceiling: ceiling and visibility are OK
Clouds: unknown
Weather: no significant weather observed at this time

METAR text: YPDN 171400Z 19004KT CAVOK 28/24 Q1011
Conditions at: YPDN (DARWIN (CIV/MIL), AU) observed 1400 UTC 17 February 2019
Temperature: 28.0°C (82°F)
Dewpoint: 24.0°C (75°F) [RH = 79%]
Pressure (altimeter): 29.85 inches Hg (1011.0 mb)
Winds: from the S (190 degrees) at 5 MPH (4 knots; 2.1 m/s)
Visibility: 6 or more miles (10+ km)
Ceiling: ceiling and visibility are OK
Clouds: unknown
Weather: no significant weather observed at this time

METAR text: YPDN 171330Z 21005KT CAVOK 28/23 Q1011
Conditions at: YPDN (DARWIN (CIV/MIL), AU) observed 1330 UTC 17 February 2019
Temperature: 28.0°C (82°F)
Dewpoint: 23.0°C (73°F) [RH = 74%]
Pressure (altimeter): 29.85 inches Hg (1011.0 mb)
Winds: from the SSW (210 degrees) at 6 MPH (5 knots; 2.6 m/s)
Visibility: 6 or more miles (10+ km)
Ceiling: ceiling and visibility are OK
Clouds: unknown
Weather: no significant weather observed at this time

METAR text: YPDN 171300Z 20005KT CAVOK 27/24 Q1011
Conditions at: YPDN (DARWIN (CIV/MIL), AU) observed 1300 UTC 17 February 2019
Temperature: 27.0°C (81°F)
Dewpoint: 24.0°C (75°F) [RH = 84%]
Pressure (altimeter): 29.85 inches Hg (1011.0 mb)
Winds: from the SSW (200 degrees) at 6 MPH (5 knots; 2.6 m/s)
Visibility: 6 or more miles (10+ km)
Ceiling: ceiling and visibility are OK
Clouds: unknown
Weather: no significant weather observed at this time

METAR text: YPDN 171230Z 18005KT CAVOK 27/23 Q1011 NOSIG RMK USE TAF FOR ARRIVALS AFTER 1230Z
Conditions at: YPDN (DARWIN (CIV/MIL), AU) observed 1230 UTC 17 February 2019
Temperature: 27.0°C (81°F)
Dewpoint: 23.0°C (73°F) [RH = 79%]
Pressure (altimeter): 29.85 inches Hg (1011.0 mb)
Winds: from the S (180 degrees) at 6 MPH (5 knots; 2.6 m/s)
Visibility: 6 or more miles (10+ km)
Ceiling: ceiling and visibility are OK
Clouds: unknown
Weather: no significant weather observed at this time

METAR text: YPDN 171200Z 17003KT CAVOK 27/23 Q1010 NOSIG RMK USE TAF FOR ARRIVALS AFTER 1230Z
Conditions at: YPDN (DARWIN (CIV/MIL), AU) observed 1200 UTC 17 February 2019
Temperature: 27.0°C (81°F)
Dewpoint: 23.0°C (73°F) [RH = 79%]
Pressure (altimeter): 29.82 inches Hg (1010.0 mb)
Winds: from the S (170 degrees) at 3 MPH (3 knots; 1.5 m/s)
Visibility: 6 or more miles (10+ km)
Ceiling: ceiling and visibility are OK
Clouds: unknown
Weather: no significant weather observed at this time

METAR text: YPDN 171130Z 23004KT CAVOK 27/23 Q1010 NOSIG RMK USE TAF FOR ARRIVALS AFTER 1230Z
Conditions at: YPDN (DARWIN (CIV/MIL), AU) observed 1130 UTC 17 February 2019
Temperature: 27.0°C (81°F)
Dewpoint: 23.0°C (73°F) [RH = 79%]
Pressure (altimeter): 29.82 inches Hg (1010.0 mb)
Winds: from the SW (230 degrees) at 5 MPH (4 knots; 2.1 m/s)
Visibility: 6 or more miles (10+ km)
Ceiling: ceiling and visibility are OK
Clouds: unknown
Weather: no significant weather observed at this time

METAR text: YPDN 171100Z 22004KT 9999 FEW015 SCT135 27/23 Q1010 NOSIG RMK USE TAF FOR ARRIVALS AFTER 1230Z
Conditions at: YPDN (DARWIN (CIV/MIL), AU) observed 1100 UTC 17 February 2019
Temperature: 27.0°C (81°F)
Dewpoint: 23.0°C (73°F) [RH = 79%]
Pressure (altimeter): 29.82 inches Hg (1010.0 mb)
Winds: from the SW (220 degrees) at 5 MPH (4 knots; 2.1 m/s)
Visibility: 6 or more miles (10+ km)
Ceiling: at least 12,000 feet AGL
Clouds: few clouds at 1500 feet AGL
scattered clouds at 13500 feet AGL
Weather: no significant weather observed at this time

METAR text: YPDN 171030Z 18005KT 9999 FEW020 SCT135 27/22 Q1009 NOSIG RMK USE TAF FOR ARRIVALS AFTER 1230Z
Conditions at: YPDN (DARWIN (CIV/MIL), AU) observed 1030 UTC 17 February 2019
Temperature: 27.0°C (81°F)
Dewpoint: 22.0°C (72°F) [RH = 74%]
Pressure (altimeter): 29.79 inches Hg (1009.0 mb)
Winds: from the S (180 degrees) at 6 MPH (5 knots; 2.6 m/s)
Visibility: 6 or more miles (10+ km)
Ceiling: at least 12,000 feet AGL
Clouds: few clouds at 2000 feet AGL
scattered clouds at 13500 feet AGL
Weather: no significant weather observed at this time

METAR text: YPDN 171000Z 19007KT 9999 FEW020 SCT185 27/22 Q1009 NOSIG
Conditions at: YPDN (DARWIN (CIV/MIL), AU) observed 1000 UTC 17 February 2019
Temperature: 27.0°C (81°F)
Dewpoint: 22.0°C (72°F) [RH = 74%]
Pressure (altimeter): 29.79 inches Hg (1009.0 mb)
Winds: from the S (190 degrees) at 8 MPH (7 knots; 3.6 m/s)
Visibility: 6 or more miles (10+ km)
Ceiling: at least 12,000 feet AGL
Clouds: few clouds at 2000 feet AGL
scattered clouds at 18500 feet AGL
Weather: no significant weather observed at this time

METAR text: YPDN 170930Z 20007KT 9999 FEW020 SCT150 28/23 Q1009 NOSIG
Conditions at: YPDN (DARWIN (CIV/MIL), AU) observed 0930 UTC 17 February 2019
Temperature: 28.0°C (82°F)
Dewpoint: 23.0°C (73°F) [RH = 74%]
Pressure (altimeter): 29.79 inches Hg (1009.0 mb)
Winds: from the SSW (200 degrees) at 8 MPH (7 knots; 3.6 m/s)
Visibility: 6 or more miles (10+ km)
Ceiling: at least 12,000 feet AGL
Clouds: few clouds at 2000 feet AGL
scattered clouds at 15000 feet AGL
Weather: no significant weather observed at this time

METAR text: YPDN 170900Z 21008KT 9999 FEW028 BKN350 30/21 Q1009 FM0930 25008KT 9999 FEW030
Conditions at: YPDN (DARWIN (CIV/MIL), AU) observed 0900 UTC 17 February 2019
Temperature: 30.0°C (86°F)
Dewpoint: 21.0°C (70°F) [RH = 59%]
Pressure (altimeter): 29.79 inches Hg (1009.0 mb)
Winds: from the SSW (210 degrees) at 9 MPH (8 knots; 4.1 m/s)
Visibility: 6 or more miles (10+ km)
Ceiling: 35000 feet AGL
Clouds: few clouds at 2800 feet AGL
broken clouds at 35000 feet AGL
Weather: no significant weather observed at this time

METAR text: YPDN 170830Z 19010KT 9999 FEW030 SCT150 BKN350 29/20 Q1008 FM0930 27008KT 9999 FEW030
Conditions at: YPDN (DARWIN (CIV/MIL), AU) observed 0830 UTC 17 February 2019
Temperature: 29.0°C (84°F)
Dewpoint: 20.0°C (68°F) [RH = 58%]
Pressure (altimeter): 29.76 inches Hg (1008.0 mb)
Winds: from the S (190 degrees) at 12 MPH (10 knots; 5.1 m/s)
Visibility: 6 or more miles (10+ km)
Ceiling: 35000 feet AGL
Clouds: few clouds at 3000 feet AGL
scattered clouds at 15000 feet AGL
broken clouds at 35000 feet AGL
Weather: no significant weather observed at this time

METAR text: YPDN 170800Z 20005KT 170V230 9999 VCSH FEW020 SCT150 BKN370 31/19 Q1008 FM0820 26010KT 9999 FEW030
Conditions at: YPDN (DARWIN (CIV/MIL), AU) observed 0800 UTC 17 February 2019
Temperature: 31.0°C (88°F)
Dewpoint: 19.0°C (66°F) [RH = 49%]
Pressure (altimeter): 29.76 inches Hg (1008.0 mb)
Winds: from the SSW (200 degrees) at 6 MPH (5 knots; 2.6 m/s)
Visibility: 6 or more miles (10+ km)
Ceiling: 37000 feet AGL
Clouds: few clouds at 2000 feet AGL
scattered clouds at 15000 feet AGL
broken clouds at 37000 feet AGL
Weather: VCSH  (showers in vicinity)

METAR text: YPDN 170730Z 14009KT 9999 -SHRA VCTS SCT028 SCT140 FEW030CB 28/17 Q1008 FM0730 30012KT 9999 FEW030 TEMPO 0730/0830 3000 SHRA SCT010
Conditions at: YPDN (DARWIN (CIV/MIL), AU) observed 0730 UTC 17 February 2019
Temperature: 28.0°C (82°F)
Dewpoint: 17.0°C (63°F) [RH = 51%]
Pressure (altimeter): 29.76 inches Hg (1008.0 mb)
Winds: from the SE (140 degrees) at 10 MPH (9 knots; 4.6 m/s)
Visibility: 6 or more miles (10+ km)
Ceiling: at least 12,000 feet AGL
Clouds: scattered clouds at 2800 feet AGL
scattered clouds at 14000 feet AGL
few clouds at 3000 feet AGL
Weather: -SHRA VCTS  (light rain showers, thunderstorm in vicinity)

METAR text: YPDN 170700Z 15010KT 130V270 9999 4900S -SHRA FEW025 SCT032 BKN058 FEW028CB 28/18 Q1008 RETS FM0700 30012KT 9999 FEW030 TEMPO 0700/0830 VRB20G35KT 1000 TSRA BKN010 SCT020CB
Conditions at: YPDN (DARWIN (CIV/MIL), AU) observed 0700 UTC 17 February 2019
Temperature: 28.0°C (82°F)
Dewpoint: 18.0°C (64°F) [RH = 55%]
Pressure (altimeter): 29.76 inches Hg (1008.0 mb)
Winds: from the SSE (150 degrees) at 12 MPH (10 knots; 5.1 m/s)
Visibility: 6 or more miles (10+ km)
Ceiling: 5800 feet AGL
Clouds: few clouds at 2500 feet AGL
scattered clouds at 3200 feet AGL
broken clouds at 5800 feet AGL
few clouds at 2800 feet AGL
Weather: -SHRA  (light rain showers)

METAR text: YPDN 170642Z 29012KT 9999 -TSRA FEW020 SCT055 FEW028CB 33/24 Q1008 FM0642 30012KT 9999 FEW030 TEMPO 0642/0830 VRB20G35KT 1000 TSRA BKN010 SCT020CB
Conditions at: YPDN (DARWIN (CIV/MIL), AU) observed 0642 UTC 17 February 2019
Temperature: 33.0°C (91°F)
Dewpoint: 24.0°C (75°F) [RH = 59%]
Pressure (altimeter): 29.76 inches Hg (1008.0 mb)
Winds: from the WNW (290 degrees) at 14 MPH (12 knots; 6.2 m/s)
Visibility: 6 or more miles (10+ km)
Ceiling: at least 12,000 feet AGL
Clouds: few clouds at 2000 feet AGL
scattered clouds at 5500 feet AGL
few clouds at 2800 feet AGL
Weather: -TSRA  (light rain associated with thunderstorm(s))

METAR text: YPDN 170630Z 29013KT 9999 -SHRA VCTS FEW025 FEW030CB 33/24 Q1008 FM0630 30014KT 9999 FEW030 TEMPO 0630/0830 VRB15G30KT 3000 SHRA SCT010
Conditions at: YPDN (DARWIN (CIV/MIL), AU) observed 0630 UTC 17 February 2019
Temperature: 33.0°C (91°F)
Dewpoint: 24.0°C (75°F) [RH = 59%]
Pressure (altimeter): 29.76 inches Hg (1008.0 mb)
Winds: from the WNW (290 degrees) at 15 MPH (13 knots; 6.7 m/s)
Visibility: 6 or more miles (10+ km)
Ceiling: at least 12,000 feet AGL
Clouds: few clouds at 2500 feet AGL
few clouds at 3000 feet AGL
Weather: -SHRA VCTS  (light rain showers, thunderstorm in vicinity)

METAR text: YPDN 170600Z 29013KT 9999 VCTS FEW020 FEW030CB 33/24 Q1008 FM0600 30014KT 9999 FEW030 INTER 0700/0830 4000 SHRA SCT010
Conditions at: YPDN (DARWIN (CIV/MIL), AU) observed 0600 UTC 17 February 2019
Temperature: 33.0°C (91°F)
Dewpoint: 24.0°C (75°F) [RH = 59%]
Pressure (altimeter): 29.76 inches Hg (1008.0 mb)
Winds: from the WNW (290 degrees) at 15 MPH (13 knots; 6.7 m/s)
Visibility: 6 or more miles (10+ km)
Ceiling: at least 12,000 feet AGL
Clouds: few clouds at 2000 feet AGL
few clouds at 3000 feet AGL
Weather: VCTS  (thunderstorm in vicinity)

METAR text: YPDN 170530Z 30013KT 9999 VCSH FEW020 FEW030CB 33/24 Q1008 DIST CB TOP TO SSW
Conditions at: YPDN (DARWIN (CIV/MIL), AU) observed 0530 UTC 17 February 2019
Temperature: 33.0°C (91°F)
Dewpoint: 24.0°C (75°F) [RH = 59%]
Pressure (altimeter): 29.76 inches Hg (1008.0 mb)
Winds: from the WNW (300 degrees) at 15 MPH (13 knots; 6.7 m/s)
Visibility: 6 or more miles (10+ km)
Ceiling: at least 12,000 feet AGL
Clouds: few clouds at 2000 feet AGL
few clouds at 3000 feet AGL
Weather: VCSH SS  (showers in vicinity, sandstorm)

METAR text: YPDN 170500Z 30013KT 9999 VCSH FEW030 33/24 Q1009 FM0500 30012KT 9999 FEW030 INTER 0500/0600 4000 SHRA SCT010
Conditions at: YPDN (DARWIN (CIV/MIL), AU) observed 0500 UTC 17 February 2019
Temperature: 33.0°C (91°F)
Dewpoint: 24.0°C (75°F) [RH = 59%]
Pressure (altimeter): 29.79 inches Hg (1009.0 mb)
Winds: from the WNW (300 degrees) at 15 MPH (13 knots; 6.7 m/s)
Visibility: 6 or more miles (10+ km)
Ceiling: at least 12,000 feet AGL
Clouds: few clouds at 3000 feet AGL
Weather: VCSH  (showers in vicinity)

METAR text: YPDN 170430Z 30012KT 9999 FEW027 FEW030TCU 33/24 Q1009 FM0430 30012KT 9999 FEW030 INTER 0500/0600 4000 SHRA SCT010
Conditions at: YPDN (DARWIN (CIV/MIL), AU) observed 0430 UTC 17 February 2019
Temperature: 33.0°C (91°F)
Dewpoint: 24.0°C (75°F) [RH = 59%]
Pressure (altimeter): 29.79 inches Hg (1009.0 mb)
Winds: from the WNW (300 degrees) at 14 MPH (12 knots; 6.2 m/s)
Visibility: 6 or more miles (10+ km)
Ceiling: at least 12,000 feet AGL
Clouds: few clouds at 2700 feet AGL
few clouds at 3000 feet AGL
Weather: no significant weather observed at this time

METAR text: YPDN 170400Z 30010KT 9999 FEW030 33/24 Q1010
Conditions at: YPDN (DARWIN (CIV/MIL), AU) observed 0400 UTC 17 February 2019
Temperature: 33.0°C (91°F)
Dewpoint: 24.0°C (75°F) [RH = 59%]
Pressure (altimeter): 29.82 inches Hg (1010.0 mb)
Winds: from the WNW (300 degrees) at 12 MPH (10 knots; 5.1 m/s)
Visibility: 6 or more miles (10+ km)
Ceiling: at least 12,000 feet AGL
Clouds: few clouds at 3000 feet AGL
Weather: no significant weather observed at this time

METAR text: YPDN 170330Z 29010KT 9999 SCT030 33/24 Q1010 NOSIG
Conditions at: YPDN (DARWIN (CIV/MIL), AU) observed 0330 UTC 17 February 2019
Temperature: 33.0°C (91°F)
Dewpoint: 24.0°C (75°F) [RH = 59%]
Pressure (altimeter): 29.82 inches Hg (1010.0 mb)
Winds: from the WNW (290 degrees) at 12 MPH (10 knots; 5.1 m/s)
Visibility: 6 or more miles (10+ km)
Ceiling: at least 12,000 feet AGL
Clouds: scattered clouds at 3000 feet AGL
Weather: no significant weather observed at this time

METAR text: YPDN 170300Z 31008KT 9999 SCT028 32/24 Q1011
Conditions at: YPDN (DARWIN (CIV/MIL), AU) observed 0300 UTC 17 February 2019
Temperature: 32.0°C (90°F)
Dewpoint: 24.0°C (75°F) [RH = 63%]
Pressure (altimeter): 29.85 inches Hg (1011.0 mb)
Winds: from the NW (310 degrees) at 9 MPH (8 knots; 4.1 m/s)
Visibility: 6 or more miles (10+ km)
Ceiling: at least 12,000 feet AGL
Clouds: scattered clouds at 2800 feet AGL
Weather: no significant weather observed at this time

METAR text: YPDN 170230Z 31008KT 9999 SCT029 33/25 Q1011 NOSIG
Conditions at: YPDN (DARWIN (CIV/MIL), AU) observed 0230 UTC 17 February 2019
Temperature: 33.0°C (91°F)
Dewpoint: 25.0°C (77°F) [RH = 63%]
Pressure (altimeter): 29.85 inches Hg (1011.0 mb)
Winds: from the NW (310 degrees) at 9 MPH (8 knots; 4.1 m/s)
Visibility: 6 or more miles (10+ km)
Ceiling: at least 12,000 feet AGL
Clouds: scattered clouds at 2900 feet AGL
Weather: no significant weather observed at this time

METAR text: YPDN 170200Z 30005KT 9999 SCT029 32/24 Q1011
Conditions at: YPDN (DARWIN (CIV/MIL), AU) observed 0200 UTC 17 February 2019
Temperature: 32.0°C (90°F)
Dewpoint: 24.0°C (75°F) [RH = 63%]
Pressure (altimeter): 29.85 inches Hg (1011.0 mb)
Winds: from the WNW (300 degrees) at 6 MPH (5 knots; 2.6 m/s)
Visibility: 6 or more miles (10+ km)
Ceiling: at least 12,000 feet AGL
Clouds: scattered clouds at 2900 feet AGL
Weather: no significant weather observed at this time

METAR text: YPDN 170130Z 24006KT 220V280 9999 SCT024 31/24 Q1011
Conditions at: YPDN (DARWIN (CIV/MIL), AU) observed 0130 UTC 17 February 2019
Temperature: 31.0°C (88°F)
Dewpoint: 24.0°C (75°F) [RH = 66%]
Pressure (altimeter): 29.85 inches Hg (1011.0 mb)
Winds: from the WSW (240 degrees) at 7 MPH (6 knots; 3.1 m/s)
Visibility: 6 or more miles (10+ km)
Ceiling: at least 12,000 feet AGL
Clouds: scattered clouds at 2400 feet AGL
Weather: no significant weather observed at this time

METAR text: YPDN 170100Z 26004KT 230V300 9999 SCT024 31/24 Q1012 NOSIG
Conditions at: YPDN (DARWIN (CIV/MIL), AU) observed 0100 UTC 17 February 2019
Temperature: 31.0°C (88°F)
Dewpoint: 24.0°C (75°F) [RH = 66%]
Pressure (altimeter): 29.88 inches Hg (1012.0 mb)
Winds: from the W (260 degrees) at 5 MPH (4 knots; 2.1 m/s)
Visibility: 6 or more miles (10+ km)
Ceiling: at least 12,000 feet AGL
Clouds: scattered clouds at 2400 feet AGL
Weather: no significant weather observed at this time

METAR text: YPDN 170030Z 27006KT 9999 FEW021 30/24 Q1012 NOSIG
Conditions at: YPDN (DARWIN (CIV/MIL), AU) observed 0030 UTC 17 February 2019
Temperature: 30.0°C (86°F)
Dewpoint: 24.0°C (75°F) [RH = 70%]
Pressure (altimeter): 29.88 inches Hg (1012.0 mb)
Winds: from the W (270 degrees) at 7 MPH (6 knots; 3.1 m/s)
Visibility: 6 or more miles (10+ km)
Ceiling: at least 12,000 feet AGL
Clouds: few clouds at 2100 feet AGL
Weather: no significant weather observed at this time

METAR text: YPDN 170000Z 28006KT 9999 FEW019 30/25 Q1012
Conditions at: YPDN (DARWIN (CIV/MIL), AU) observed 0000 UTC 17 February 2019
Temperature: 30.0°C (86°F)
Dewpoint: 25.0°C (77°F) [RH = 75%]
Pressure (altimeter): 29.88 inches Hg (1012.0 mb)
Winds: from the W (280 degrees) at 7 MPH (6 knots; 3.1 m/s)
Visibility: 6 or more miles (10+ km)
Ceiling: at least 12,000 feet AGL
Clouds: few clouds at 1900 feet AGL
Weather: no significant weather observed at this time

METAR text: YPDN 162330Z 29004KT 9999 FEW017 30/25 Q1012 NOSIG
Conditions at: YPDN (DARWIN (CIV/MIL), AU) observed 2330 UTC 16 February 2019
Temperature: 30.0°C (86°F)
Dewpoint: 25.0°C (77°F) [RH = 75%]
Pressure (altimeter): 29.88 inches Hg (1012.0 mb)
Winds: from the WNW (290 degrees) at 5 MPH (4 knots; 2.1 m/s)
Visibility: 6 or more miles (10+ km)
Ceiling: at least 12,000 feet AGL
Clouds: few clouds at 1700 feet AGL
Weather: no significant weather observed at this time

METAR text: YPDN 162300Z 11001KT 9999 FEW014 28/25 Q1012
Conditions at: YPDN (DARWIN (CIV/MIL), AU) observed 2300 UTC 16 February 2019
Temperature: 28.0°C (82°F)
Dewpoint: 25.0°C (77°F) [RH = 84%]
Pressure (altimeter): 29.88 inches Hg (1012.0 mb)
Winds: from the ESE (110 degrees) at 1 MPH (1 knots; 0.5 m/s)
Visibility: 6 or more miles (10+ km)
Ceiling: at least 12,000 feet AGL
Clouds: few clouds at 1400 feet AGL
Weather: no significant weather observed at this time

METAR text: YPDN 162230Z 09001KT 9999 FEW013 BKN160 26/24 Q1011 NOSIG
Conditions at: YPDN (DARWIN (CIV/MIL), AU) observed 2230 UTC 16 February 2019
Temperature: 26.0°C (79°F)
Dewpoint: 24.0°C (75°F) [RH = 89%]
Pressure (altimeter): 29.85 inches Hg (1011.0 mb)
Winds: from the E (90 degrees) at 1 MPH (1 knots; 0.5 m/s)
Visibility: 6 or more miles (10+ km)
Ceiling: 16000 feet AGL
Clouds: few clouds at 1300 feet AGL
broken clouds at 16000 feet AGL
Weather: no significant weather observed at this time

METAR text: YPDN 162200Z 12002KT 9999 FEW013 BKN160 26/24 Q1011
Conditions at: YPDN (DARWIN (CIV/MIL), AU) observed 2200 UTC 16 February 2019
Temperature: 26.0°C (79°F)
Dewpoint: 24.0°C (75°F) [RH = 89%]
Pressure (altimeter): 29.85 inches Hg (1011.0 mb)
Winds: from the ESE (120 degrees) at 2 MPH (2 knots; 1.0 m/s)
Visibility: 6 or more miles (10+ km)
Ceiling: 16000 feet AGL
Clouds: few clouds at 1300 feet AGL
broken clouds at 16000 feet AGL
Weather: no significant weather observed at this time

METAR text: YPDN 162130Z 12002KT 9999 FEW013 BKN160 25/24 Q1011 NOSIG
Conditions at: YPDN (DARWIN (CIV/MIL), AU) observed 2130 UTC 16 February 2019
Temperature: 25.0°C (77°F)
Dewpoint: 24.0°C (75°F) [RH = 94%]
Pressure (altimeter): 29.85 inches Hg (1011.0 mb)
Winds: from the ESE (120 degrees) at 2 MPH (2 knots; 1.0 m/s)
Visibility: 6 or more miles (10+ km)
Ceiling: 16000 feet AGL
Clouds: few clouds at 1300 feet AGL
broken clouds at 16000 feet AGL
Weather: no significant weather observed at this time

Forecast for: YPDN (DARWIN (CIV/MIL), AU)
Text: TAF YPDN 180529Z 1806/1912 30012KT 9999 SCT030
Forecast period: 0600 to 0900 UTC 18 February 2019
Forecast type: FROM: standard forecast or significant change
Winds: from the WNW (300 degrees) at 14 MPH (12 knots; 6.2 m/s)
Visibility: 6 or more miles 10+ km)
Ceiling: at least 12,000 feet AGL
Clouds: scattered clouds at 3000 feet AGL
Weather: no significant weather forecast for this period
Text: FM180900 28007KT 9999 FEW020
Forecast period: 0900 UTC 18 February 2019 to 0000 UTC 19 February 2019
Forecast type: FROM: standard forecast or significant change
Winds: from the W (280 degrees) at 8 MPH (7 knots; 3.6 m/s)
Visibility: 6 or more miles 10+ km)
Ceiling: at least 12,000 feet AGL
Clouds: few clouds at 2000 feet AGL
Weather: no significant weather forecast for this period
Text: FM190000 29010KT 9999 SCT035
Forecast period: 0000 to 1200 UTC 19 February 2019
Forecast type: FROM: standard forecast or significant change
Winds: from the WNW (290 degrees) at 12 MPH (10 knots; 5.1 m/s)
Visibility: 6 or more miles 10+ km)
Ceiling: at least 12,000 feet AGL
Clouds: scattered clouds at 3500 feet AGL
Weather: no significant weather forecast for this period
Text: PROB30
Forecast period: 0500 to 1000 UTC 19 February 2019
Forecast type: TEMPORARY: The following changes expected for less than half the time period
Winds: variable direction winds at 23 MPH (20 knots; 10.3 m/s)
gusting to 40 MPH (35 knots; 18.0 m/s)
Visibility: 0.62 miles (1.00 km)
Ceiling: 1000 feet AGL
Clouds: broken clouds at 1000 feet AGL
scattered clouds at 2000 feet AGL
Weather: TSRA  (rain associated with thunderstorm(s))